createdAt,value
2022-08-12T00:02:10.185Z,4.57
2022-08-12T00:07:19.906Z,4.57
2022-08-12T00:12:28.390Z,4.57
2022-08-12T00:17:36.891Z,4.57
2022-08-12T00:22:45.379Z,4.54
2022-08-12T00:27:54.452Z,4.62
2022-08-12T00:33:04.788Z,4.62
2022-08-12T00:38:12.093Z,4.57
2022-08-12T00:43:20.548Z,4.57
2022-08-12T00:48:29.692Z,4.55
2022-08-12T00:53:39.452Z,4.55
2022-08-12T00:58:48.557Z,4.54
2022-08-12T01:03:59.868Z,4.54
2022-08-12T01:09:06.781Z,4.56
2022-08-12T01:14:14.624Z,4.56
2022-08-12T01:19:23.786Z,4.57
2022-08-12T01:24:32.363Z,4.57
2022-08-12T01:29:41.995Z,4.69
2022-08-12T01:34:49.210Z,4.69
2022-08-12T01:40:46.890Z,4.65
2022-08-12T01:45:07.374Z,4.65
2022-08-12T01:50:15.917Z,4.59
2022-08-12T01:55:24.392Z,4.59
2022-08-12T02:00:56.446Z,4.65
2022-08-12T02:05:43.221Z,4.65
2022-08-12T02:10:52.433Z,4.61
2022-08-12T02:16:02.138Z,4.61
2022-08-12T02:21:12.573Z,4.64
2022-08-12T02:26:21.694Z,4.64
2022-08-12T02:31:31.440Z,4.69
2022-08-12T02:36:41.473Z,4.69
2022-08-12T02:41:51.000Z,4.61
2022-08-12T02:47:00.706Z,4.61
2022-08-12T02:52:09.862Z,4.62
2022-08-12T02:57:18.348Z,4.62
2022-08-12T03:02:27.423Z,4.65
2022-08-12T03:08:00.513Z,4.65
2022-08-12T03:12:51.274Z,4.61
2022-08-12T03:18:29.129Z,4.61
2022-08-12T03:23:03.861Z,4.64
2022-08-12T03:28:24.335Z,4.64
2022-08-12T03:33:22.750Z,4.57
2022-08-12T03:38:32.568Z,4.57
2022-08-12T03:43:41.032Z,4.61
2022-08-12T03:48:49.512Z,4.61
2022-08-12T03:53:58.014Z,4.61
2022-08-12T03:59:07.766Z,4.6
2022-08-12T04:04:16.899Z,4.6
2022-08-12T04:09:26.651Z,4.62
2022-08-12T04:14:36.620Z,4.62
2022-08-12T04:19:45.521Z,4.62
2022-08-12T04:24:55.327Z,4.62
2022-08-12T04:30:33.977Z,4.62
2022-08-12T04:35:12.191Z,4.62
2022-08-12T04:40:29.055Z,4.74
2022-08-12T04:45:29.162Z,4.74
2022-08-12T04:50:38.292Z,4.75
2022-08-12T04:55:46.874Z,4.75
2022-08-12T05:00:57.268Z,4.74
2022-08-12T05:06:06.949Z,4.74
2022-08-12T05:11:15.461Z,4.71
2022-08-12T05:16:36.288Z,4.71
2022-08-12T05:21:32.987Z,4.77
2022-08-12T05:26:43.433Z,4.77
2022-08-12T05:31:52.544Z,4.68
2022-08-12T05:37:01.693Z,4.68
2022-08-12T05:42:10.818Z,4.71
2022-08-12T05:47:19.900Z,4.71
2022-08-12T05:52:29.039Z,4.64
2022-08-12T05:57:38.179Z,4.64
2022-08-12T06:02:47.059Z,4.7
2022-08-12T06:08:03.454Z,4.7
2022-08-12T06:13:06.229Z,4.65
2022-08-12T06:18:16.688Z,4.65
2022-08-12T06:23:25.663Z,4.65
2022-08-12T06:28:34.824Z,4.65
2022-08-12T06:35:50.454Z,4.61
2022-08-12T06:38:52.362Z,4.61
2022-08-12T06:44:08.281Z,4.65
2022-08-12T06:49:10.614Z,4.65
2022-08-12T06:54:32.610Z,4.71
2022-08-12T06:59:28.871Z,4.71
2022-08-12T07:04:40.308Z,4.67
2022-08-12T07:10:08.835Z,4.63
2022-08-12T07:14:57.521Z,4.63
2022-08-12T07:20:07.364Z,4.6
2022-08-12T07:25:16.387Z,4.6
2022-08-12T07:30:26.166Z,4.58
2022-08-12T07:35:37.864Z,4.58
2022-08-12T07:40:45.688Z,4.54
2022-08-12T07:45:55.430Z,4.54
2022-08-12T07:51:05.225Z,4.53
2022-08-12T07:56:14.335Z,4.53
2022-08-12T08:01:24.379Z,4.54
2022-08-12T08:06:33.859Z,4.54
2022-08-12T08:11:42.311Z,4.58
2022-08-12T08:16:52.718Z,4.58
2022-08-12T08:22:01.857Z,4.5
2022-08-12T08:27:12.250Z,4.5
2022-08-12T08:32:21.294Z,4.51
2022-08-12T08:37:37.904Z,4.51
2022-08-12T08:42:41.396Z,4.45
2022-08-12T08:47:49.949Z,4.45
2022-08-12T08:52:59.055Z,4.42
2022-08-12T08:58:08.816Z,4.42
2022-08-12T09:29:12.959Z,4.46
2022-08-12T09:43:12.098Z,4.51
2022-08-12T09:44:41.577Z,4.43
2022-08-12T09:49:59.825Z,4.43
2022-08-12T09:58:59.482Z,4.46
2022-08-12T10:00:54.434Z,4.46
2022-08-12T10:06:32.182Z,4.46
2022-08-12T10:11:20.206Z,4.46
2022-08-12T10:16:18.839Z,4.49
2022-08-12T10:21:23.985Z,4.5
2022-08-12T10:27:06.590Z,4.5
2022-08-12T10:32:57.195Z,4.49
2022-08-12T10:38:13.210Z,4.49
2022-08-12T10:42:29.876Z,4.49
2022-08-12T10:48:34.710Z,4.49
2022-08-12T10:52:57.723Z,4.5
2022-08-12T10:56:50.473Z,4.5
2022-08-12T11:04:51.662Z,4.51
2022-08-12T11:10:08.585Z,4.51
2022-08-12T11:11:17.125Z,4.51
2022-08-12T11:16:24.954Z,4.48
2022-08-12T11:17:56.776Z,4.48
2022-08-12T11:22:06.567Z,4.52
2022-08-12T11:23:37.756Z,4.52
2022-08-12T11:27:55.609Z,4.52
2022-08-12T11:28:33.626Z,4.52
2022-08-12T11:34:55.460Z,4.48
2022-08-12T11:45:57.386Z,4.48
2022-08-12T11:50:54.869Z,4.48
2022-08-12T11:51:41.245Z,4.48
2022-08-12T11:57:02.918Z,4.48
2022-08-12T12:06:33.204Z,4.45
2022-08-12T12:11:51.149Z,4.48
2022-08-12T12:18:04.322Z,4.48
2022-08-12T12:23:31.607Z,4.48
2022-08-12T12:28:40.009Z,4.48
2022-08-12T12:33:59.144Z,4.45
2022-08-12T12:39:11.179Z,4.45
2022-08-12T12:44:53.988Z,4.45
2022-08-12T12:49:31.046Z,4.45
2022-08-12T12:54:46.586Z,4.45
2022-08-12T13:00:07.866Z,4.45
2022-08-12T13:05:28.395Z,4.47
2022-08-12T13:10:51.318Z,4.47
2022-08-12T13:15:49.284Z,4.43
2022-08-12T13:20:45.616Z,4.43
2022-08-12T13:25:54.095Z,4.49
2022-08-12T13:31:05.132Z,4.49
2022-08-12T13:36:20.135Z,4.48
2022-08-12T13:41:22.099Z,4.48
2022-08-12T13:46:33.140Z,4.47
2022-08-12T13:51:42.209Z,4.47
2022-08-12T13:56:57.097Z,4.45
2022-08-12T14:02:11.997Z,4.43
2022-08-12T14:07:27.674Z,4.43
2022-08-12T14:12:50.798Z,4.47
2022-08-12T14:18:09.391Z,4.47
2022-08-12T14:24:09.682Z,4.48
2022-08-12T14:28:32.622Z,4.48
2022-08-12T14:33:47.662Z,4.45
2022-08-12T14:39:17.270Z,4.45
2022-08-12T14:45:02.443Z,4.4
2022-08-12T14:59:23.765Z,4.41
2022-08-12T15:03:58.656Z,4.42
2022-08-12T15:08:57.869Z,4.42
2022-08-12T15:14:07.655Z,4.4
2022-08-12T15:20:38.425Z,4.4
2022-08-12T15:24:26.416Z,4.42
2022-08-12T15:29:36.020Z,4.42
2022-08-12T15:34:53.691Z,4.42
2022-08-12T15:40:01.922Z,4.42
2022-08-12T15:45:08.938Z,4.4
2022-08-12T15:50:26.780Z,4.4
2022-08-12T15:55:22.438Z,4.4
2022-08-12T16:00:34.269Z,4.4
2022-08-12T16:07:10.065Z,4.42
2022-08-12T16:10:47.876Z,4.42
2022-08-12T16:16:24.607Z,4.43
2022-08-12T16:21:05.461Z,4.43
2022-08-12T16:26:34.217Z,4.42
2022-08-12T16:31:29.694Z,4.42
2022-08-12T16:42:19.740Z,4.39
2022-08-12T16:48:00.945Z,4.41
2022-08-12T16:52:40.497Z,4.41
2022-08-12T16:57:56.665Z,4.41
2022-08-12T17:02:58.597Z,4.44
2022-08-12T17:08:08.866Z,4.44
2022-08-12T17:13:17.111Z,4.42
2022-08-12T17:19:09.707Z,4.42
2022-08-12T17:23:54.488Z,4.42
2022-08-12T17:28:53.506Z,4.42
2022-08-12T17:33:58.525Z,4.4
2022-08-12T17:39:09.735Z,4.4
2022-08-12T17:44:20.657Z,4.42
2022-08-12T17:50:06.238Z,4.42
2022-08-12T17:54:40.093Z,4.38
2022-08-12T17:59:51.711Z,4.38
2022-08-12T18:06:03.641Z,4.38
2022-08-12T18:10:42.670Z,4.38
2022-08-12T18:16:06.961Z,4.43
2022-08-12T18:21:25.034Z,4.43
2022-08-12T18:27:47.549Z,4.39
2022-08-12T18:32:06.104Z,4.39
2022-08-12T18:37:10.435Z,4.4
2022-08-12T18:41:24.561Z,4.4
2022-08-12T18:46:08.963Z,4.41
2022-08-12T18:52:02.128Z,4.41
2022-08-12T18:56:34.695Z,4.4
2022-08-12T19:02:23.658Z,4.4
2022-08-12T19:06:47.038Z,4.41
2022-08-12T19:11:58.394Z,4.41
2022-08-12T19:17:11.742Z,4.41
2022-08-12T19:22:30.948Z,4.41
2022-08-12T19:27:33.138Z,4.39
2022-08-12T19:32:37.592Z,4.39
2022-08-12T19:38:07.406Z,4.42
2022-08-12T19:43:21.112Z,4.42
2022-08-12T19:48:18.030Z,4.43
2022-08-12T19:53:19.026Z,4.43
2022-08-12T19:58:24.857Z,4.43
2022-08-12T20:03:41.686Z,4.43
2022-08-12T20:08:57.466Z,4.41
2022-08-12T20:14:27.705Z,4.41
2022-08-12T20:19:12.769Z,4.37
2022-08-12T20:24:31.293Z,4.38
2022-08-12T20:29:45.445Z,4.38
2022-08-12T20:35:18.431Z,4.37
2022-08-12T20:40:14.254Z,4.37
2022-08-12T20:45:50.899Z,4.38
2022-08-12T20:50:46.404Z,4.38
2022-08-12T20:56:01.416Z,4.39
2022-08-12T21:01:19.709Z,4.39
2022-08-12T21:06:40.053Z,4.38
2022-08-12T21:11:49.284Z,4.38
2022-08-12T21:16:00.651Z,4.37
2022-08-12T21:20:54.977Z,4.37
2022-08-12T21:26:03.073Z,4.37
2022-08-12T21:32:50.707Z,4.37
2022-08-12T21:36:35.671Z,4.36
2022-08-12T21:41:31.944Z,4.36
2022-08-12T21:46:37.980Z,4.36
2022-08-12T21:51:50.887Z,4.36
2022-08-12T21:56:55.839Z,4.36
2022-08-12T22:02:06.249Z,4.36
2022-08-12T22:07:25.385Z,4.37
2022-08-12T22:12:25.775Z,4.37
2022-08-12T22:17:57.201Z,4.35
2022-08-12T22:22:59.651Z,4.35
2022-08-12T22:28:09.779Z,4.35
2022-08-12T22:33:18.355Z,4.35
2022-08-12T22:38:30.103Z,4.31
2022-08-12T22:44:02.127Z,4.31
2022-08-12T22:48:52.710Z,4.32
2022-08-12T22:53:55.489Z,4.32
2022-08-12T22:59:04.489Z,4.28
2022-08-12T23:04:13.615Z,4.28
2022-08-12T23:09:23.421Z,4.3
2022-08-12T23:14:31.858Z,4.3
2022-08-12T23:19:53.878Z,4.27
2022-08-12T23:25:00.530Z,4.27
2022-08-12T23:30:39.383Z,4.26
2022-08-12T23:35:22.912Z,4.25
2022-08-12T23:40:25.920Z,4.25
2022-08-12T23:45:34.240Z,4.23
2022-08-12T23:50:38.257Z,4.23
2022-08-12T23:55:54.571Z,4.25
